sensor_id;sensor_type;location;lat;lon;timestamp;temperature;humidity
3053;DHT22;1536;51.098;6.414;2022-09-17T00:00:42;14.20;99.90
3053;DHT22;1536;51.098;6.414;2022-09-17T00:03:09;14.20;99.90
3053;DHT22;1536;51.098;6.414;2022-09-17T00:05:36;14.20;99.90
3053;DHT22;1536;51.098;6.414;2022-09-17T00:08:04;14.20;99.90
3053;DHT22;1536;51.098;6.414;2022-09-17T00:10:32;14.20;99.90
3053;DHT22;1536;51.098;6.414;2022-09-17T00:12:59;14.20;99.90
3053;DHT22;1536;51.098;6.414;2022-09-17T00:15:26;14.20;99.90
3053;DHT22;1536;51.098;6.414;2022-09-17T00:17:55;14.20;99.90
3053;DHT22;1536;51.098;6.414;2022-09-17T00:20:23;14.20;99.90
3053;DHT22;1536;51.098;6.414;2022-09-17T00:22:51;14.20;99.90
3053;DHT22;1536;51.098;6.414;2022-09-17T00:25:17;14.20;99.90
3053;DHT22;1536;51.098;6.414;2022-09-17T00:27:44;14.20;99.90
3053;DHT22;1536;51.098;6.414;2022-09-17T00:30:12;14.20;99.90
3053;DHT22;1536;51.098;6.414;2022-09-17T00:32:39;14.20;99.90
3053;DHT22;1536;51.098;6.414;2022-09-17T00:35:07;14.20;99.90
3053;DHT22;1536;51.098;6.414;2022-09-17T00:37:34;14.20;99.90
3053;DHT22;1536;51.098;6.414;2022-09-17T00:40:01;14.20;99.90
3053;DHT22;1536;51.098;6.414;2022-09-17T00:42:28;14.20;99.90
3053;DHT22;1536;51.098;6.414;2022-09-17T00:44:55;14.20;99.90
3053;DHT22;1536;51.098;6.414;2022-09-17T00:47:26;14.20;99.90
3053;DHT22;1536;51.098;6.414;2022-09-17T00:49:57;14.10;99.90
3053;DHT22;1536;51.098;6.414;2022-09-17T00:52:33;14.10;99.90
3053;DHT22;1536;51.098;6.414;2022-09-17T00:55:07;14.10;99.90
3053;DHT22;1536;51.098;6.414;2022-09-17T00:57:35;14.10;99.90
3053;DHT22;1536;51.098;6.414;2022-09-17T01:00:04;14.10;99.90
3053;DHT22;1536;51.098;6.414;2022-09-17T01:02:31;14.10;99.90
3053;DHT22;1536;51.098;6.414;2022-09-17T01:04:58;14.10;99.90
3053;DHT22;1536;51.098;6.414;2022-09-17T01:07:51;14.10;99.90
3053;DHT22;1536;51.098;6.414;2022-09-17T01:10:34;14.10;99.90
3053;DHT22;1536;51.098;6.414;2022-09-17T01:13:19;14.10;99.90
3053;DHT22;1536;51.098;6.414;2022-09-17T01:15:54;14.10;99.90
3053;DHT22;1536;51.098;6.414;2022-09-17T01:18:34;14.10;99.90
3053;DHT22;1536;51.098;6.414;2022-09-17T01:21:30;14.00;99.90
3053;DHT22;1536;51.098;6.414;2022-09-17T01:30:14;14.00;99.90
3053;DHT22;1536;51.098;6.414;2022-09-17T01:32:44;14.00;99.90
3053;DHT22;1536;51.098;6.414;2022-09-17T01:35:17;13.90;99.90
3053;DHT22;1536;51.098;6.414;2022-09-17T01:37:52;13.90;99.90
3053;DHT22;1536;51.098;6.414;2022-09-17T01:40:23;13.90;99.90
3053;DHT22;1536;51.098;6.414;2022-09-17T01:42:57;14.00;99.90
3053;DHT22;1536;51.098;6.414;2022-09-17T01:45:29;13.90;99.90
3053;DHT22;1536;51.098;6.414;2022-09-17T01:48:02;13.90;99.90
3053;DHT22;1536;51.098;6.414;2022-09-17T01:50:36;13.90;99.90
3053;DHT22;1536;51.098;6.414;2022-09-17T01:53:06;13.90;99.90
3053;DHT22;1536;51.098;6.414;2022-09-17T01:55:37;13.90;99.90
3053;DHT22;1536;51.098;6.414;2022-09-17T01:58:07;13.90;99.90
3053;DHT22;1536;51.098;6.414;2022-09-17T02:00:38;13.90;99.90
3053;DHT22;1536;51.098;6.414;2022-09-17T02:03:14;13.90;99.90
3053;DHT22;1536;51.098;6.414;2022-09-17T02:05:47;13.90;99.90
3053;DHT22;1536;51.098;6.414;2022-09-17T02:08:19;13.80;99.90
3053;DHT22;1536;51.098;6.414;2022-09-17T02:10:49;13.80;99.90
3053;DHT22;1536;51.098;6.414;2022-09-17T02:13:21;13.80;99.90
3053;DHT22;1536;51.098;6.414;2022-09-17T02:15:51;13.80;99.90
3053;DHT22;1536;51.098;6.414;2022-09-17T02:18:25;13.70;99.90
3053;DHT22;1536;51.098;6.414;2022-09-17T02:21:02;13.70;99.90
3053;DHT22;1536;51.098;6.414;2022-09-17T02:23:34;13.70;99.90
3053;DHT22;1536;51.098;6.414;2022-09-17T02:26:07;13.70;99.90
3053;DHT22;1536;51.098;6.414;2022-09-17T02:28:40;13.70;99.90
3053;DHT22;1536;51.098;6.414;2022-09-17T02:31:08;13.80;99.90
3053;DHT22;1536;51.098;6.414;2022-09-17T02:33:39;13.80;99.90
3053;DHT22;1536;51.098;6.414;2022-09-17T02:36:07;13.80;99.90
3053;DHT22;1536;51.098;6.414;2022-09-17T02:38:34;13.80;99.90
3053;DHT22;1536;51.098;6.414;2022-09-17T02:41:05;13.80;99.90
3053;DHT22;1536;51.098;6.414;2022-09-17T02:43:40;13.80;99.90
3053;DHT22;1536;51.098;6.414;2022-09-17T02:46:33;13.80;99.90
3053;DHT22;1536;51.098;6.414;2022-09-17T02:49:34;13.80;99.90
3053;DHT22;1536;51.098;6.414;2022-09-17T02:52:08;13.80;99.90
3053;DHT22;1536;51.098;6.414;2022-09-17T02:54:41;13.80;99.90
3053;DHT22;1536;51.098;6.414;2022-09-17T02:57:16;13.90;99.90
3053;DHT22;1536;51.098;6.414;2022-09-17T02:59:51;13.90;99.90
3053;DHT22;1536;51.098;6.414;2022-09-17T03:02:22;13.90;99.90
3053;DHT22;1536;51.098;6.414;2022-09-17T03:04:52;13.90;99.90
3053;DHT22;1536;51.098;6.414;2022-09-17T03:07:21;13.90;99.90
3053;DHT22;1536;51.098;6.414;2022-09-17T03:09:48;13.90;99.90
3053;DHT22;1536;51.098;6.414;2022-09-17T03:12:16;14.00;99.90
3053;DHT22;1536;51.098;6.414;2022-09-17T03:14:43;14.00;99.90
3053;DHT22;1536;51.098;6.414;2022-09-17T03:17:10;13.90;99.90
3053;DHT22;1536;51.098;6.414;2022-09-17T03:19:37;14.00;99.90
3053;DHT22;1536;51.098;6.414;2022-09-17T03:22:05;13.90;99.90
3053;DHT22;1536;51.098;6.414;2022-09-17T03:24:32;13.90;99.90
3053;DHT22;1536;51.098;6.414;2022-09-17T03:26:59;13.90;99.90
3053;DHT22;1536;51.098;6.414;2022-09-17T03:29:25;13.90;99.90
3053;DHT22;1536;51.098;6.414;2022-09-17T03:31:52;13.80;99.90
3053;DHT22;1536;51.098;6.414;2022-09-17T03:34:18;13.80;99.90
3053;DHT22;1536;51.098;6.414;2022-09-17T03:36:45;13.80;99.90
3053;DHT22;1536;51.098;6.414;2022-09-17T03:39:13;13.80;99.90
3053;DHT22;1536;51.098;6.414;2022-09-17T03:41:40;13.70;99.90
3053;DHT22;1536;51.098;6.414;2022-09-17T03:44:07;13.70;99.90
3053;DHT22;1536;51.098;6.414;2022-09-17T03:46:35;13.70;99.90
3053;DHT22;1536;51.098;6.414;2022-09-17T03:49:01;13.70;99.90
3053;DHT22;1536;51.098;6.414;2022-09-17T03:51:28;13.70;99.90
3053;DHT22;1536;51.098;6.414;2022-09-17T03:53:55;13.60;99.90
3053;DHT22;1536;51.098;6.414;2022-09-17T03:56:23;13.60;99.90
3053;DHT22;1536;51.098;6.414;2022-09-17T03:58:51;13.60;99.90
3053;DHT22;1536;51.098;6.414;2022-09-17T04:01:17;13.60;99.90
3053;DHT22;1536;51.098;6.414;2022-09-17T04:03:44;13.60;99.90
3053;DHT22;1536;51.098;6.414;2022-09-17T04:06:11;13.60;99.90
3053;DHT22;1536;51.098;6.414;2022-09-17T04:08:37;13.50;99.90
3053;DHT22;1536;51.098;6.414;2022-09-17T04:11:04;13.50;99.90
3053;DHT22;1536;51.098;6.414;2022-09-17T04:13:33;13.50;99.90
3053;DHT22;1536;51.098;6.414;2022-09-17T04:16:00;13.50;99.90
3053;DHT22;1536;51.098;6.414;2022-09-17T04:18:27;13.40;99.90
3053;DHT22;1536;51.098;6.414;2022-09-17T04:20:54;13.40;99.90
3053;DHT22;1536;51.098;6.414;2022-09-17T04:23:21;13.40;99.90
3053;DHT22;1536;51.098;6.414;2022-09-17T04:25:47;13.40;99.90
3053;DHT22;1536;51.098;6.414;2022-09-17T04:28:14;13.40;99.90
3053;DHT22;1536;51.098;6.414;2022-09-17T04:30:42;13.50;99.90
3053;DHT22;1536;51.098;6.414;2022-09-17T04:33:10;13.50;99.90
3053;DHT22;1536;51.098;6.414;2022-09-17T04:35:37;13.50;99.90
3053;DHT22;1536;51.098;6.414;2022-09-17T04:38:03;13.50;99.90
3053;DHT22;1536;51.098;6.414;2022-09-17T04:40:30;13.60;99.90
3053;DHT22;1536;51.098;6.414;2022-09-17T04:42:58;13.60;99.90
3053;DHT22;1536;51.098;6.414;2022-09-17T04:45:28;13.60;99.90
3053;DHT22;1536;51.098;6.414;2022-09-17T04:47:56;13.60;99.90
3053;DHT22;1536;51.098;6.414;2022-09-17T04:50:22;13.60;99.90
3053;DHT22;1536;51.098;6.414;2022-09-17T04:52:49;13.60;99.90
3053;DHT22;1536;51.098;6.414;2022-09-17T04:55:16;13.60;99.90
3053;DHT22;1536;51.098;6.414;2022-09-17T04:57:45;13.60;99.90
3053;DHT22;1536;51.098;6.414;2022-09-17T05:00:13;13.60;99.90
3053;DHT22;1536;51.098;6.414;2022-09-17T05:02:44;13.60;99.90
3053;DHT22;1536;51.098;6.414;2022-09-17T05:05:13;13.60;99.90
3053;DHT22;1536;51.098;6.414;2022-09-17T05:07:40;13.60;99.90
3053;DHT22;1536;51.098;6.414;2022-09-17T05:10:08;13.60;99.90
3053;DHT22;1536;51.098;6.414;2022-09-17T05:12:35;13.60;99.90
3053;DHT22;1536;51.098;6.414;2022-09-17T05:15:02;13.60;99.90
3053;DHT22;1536;51.098;6.414;2022-09-17T05:17:29;13.70;99.90
3053;DHT22;1536;51.098;6.414;2022-09-17T05:19:55;13.70;99.90
3053;DHT22;1536;51.098;6.414;2022-09-17T05:22:23;13.70;99.90
3053;DHT22;1536;51.098;6.414;2022-09-17T05:24:50;13.70;99.90
3053;DHT22;1536;51.098;6.414;2022-09-17T05:27:17;13.80;99.90
3053;DHT22;1536;51.098;6.414;2022-09-17T05:29:43;13.80;99.90
3053;DHT22;1536;51.098;6.414;2022-09-17T05:32:11;13.80;99.90
3053;DHT22;1536;51.098;6.414;2022-09-17T05:34:37;13.80;99.90
3053;DHT22;1536;51.098;6.414;2022-09-17T05:37:05;13.80;99.90
3053;DHT22;1536;51.098;6.414;2022-09-17T05:39:33;13.80;99.90
3053;DHT22;1536;51.098;6.414;2022-09-17T05:41:59;13.90;99.90
3053;DHT22;1536;51.098;6.414;2022-09-17T05:44:26;13.90;99.90
3053;DHT22;1536;51.098;6.414;2022-09-17T05:46:53;13.90;99.90
3053;DHT22;1536;51.098;6.414;2022-09-17T05:49:20;14.00;99.90
3053;DHT22;1536;51.098;6.414;2022-09-17T05:51:49;14.10;99.90
3053;DHT22;1536;51.098;6.414;2022-09-17T05:54:15;14.00;99.90
3053;DHT22;1536;51.098;6.414;2022-09-17T05:56:43;14.10;99.90
3053;DHT22;1536;51.098;6.414;2022-09-17T05:59:10;14.10;99.90
3053;DHT22;1536;51.098;6.414;2022-09-17T06:01:37;14.10;99.90
3053;DHT22;1536;51.098;6.414;2022-09-17T06:04:03;14.10;99.90
3053;DHT22;1536;51.098;6.414;2022-09-17T06:06:30;14.10;99.90
3053;DHT22;1536;51.098;6.414;2022-09-17T06:08:58;14.10;99.90
3053;DHT22;1536;51.098;6.414;2022-09-17T06:11:25;14.10;99.90
3053;DHT22;1536;51.098;6.414;2022-09-17T06:13:53;14.10;99.90
3053;DHT22;1536;51.098;6.414;2022-09-17T06:16:21;14.10;99.90
3053;DHT22;1536;51.098;6.414;2022-09-17T06:18:47;14.10;99.90
3053;DHT22;1536;51.098;6.414;2022-09-17T06:21:15;14.10;99.90
3053;DHT22;1536;51.098;6.414;2022-09-17T06:23:43;14.00;99.90
3053;DHT22;1536;51.098;6.414;2022-09-17T06:26:10;14.00;99.90
3053;DHT22;1536;51.098;6.414;2022-09-17T06:28:37;14.00;99.90
3053;DHT22;1536;51.098;6.414;2022-09-17T06:31:06;14.00;99.90
3053;DHT22;1536;51.098;6.414;2022-09-17T06:33:34;14.00;99.90
3053;DHT22;1536;51.098;6.414;2022-09-17T06:36:03;14.00;99.90
3053;DHT22;1536;51.098;6.414;2022-09-17T06:38:33;14.10;99.90
3053;DHT22;1536;51.098;6.414;2022-09-17T06:41:00;14.10;99.90
3053;DHT22;1536;51.098;6.414;2022-09-17T06:43:27;14.10;99.90
3053;DHT22;1536;51.098;6.414;2022-09-17T06:45:55;14.20;99.90
3053;DHT22;1536;51.098;6.414;2022-09-17T06:48:23;14.20;99.90
3053;DHT22;1536;51.098;6.414;2022-09-17T06:50:51;14.20;99.90
3053;DHT22;1536;51.098;6.414;2022-09-17T06:53:19;14.20;99.90
3053;DHT22;1536;51.098;6.414;2022-09-17T06:55:45;14.20;99.90
3053;DHT22;1536;51.098;6.414;2022-09-17T06:58:12;14.30;99.90
3053;DHT22;1536;51.098;6.414;2022-09-17T07:00:39;14.30;99.90
3053;DHT22;1536;51.098;6.414;2022-09-17T07:03:06;14.30;99.90
3053;DHT22;1536;51.098;6.414;2022-09-17T07:05:34;14.40;99.90
3053;DHT22;1536;51.098;6.414;2022-09-17T07:08:01;14.40;99.90
3053;DHT22;1536;51.098;6.414;2022-09-17T07:10:29;14.50;99.90
3053;DHT22;1536;51.098;6.414;2022-09-17T07:12:56;14.50;99.90
3053;DHT22;1536;51.098;6.414;2022-09-17T07:15:23;14.50;99.90
3053;DHT22;1536;51.098;6.414;2022-09-17T07:17:50;14.50;99.90
3053;DHT22;1536;51.098;6.414;2022-09-17T07:20:17;14.60;99.90
3053;DHT22;1536;51.098;6.414;2022-09-17T07:22:54;14.60;99.90
3053;DHT22;1536;51.098;6.414;2022-09-17T07:25:21;14.60;99.90
3053;DHT22;1536;51.098;6.414;2022-09-17T07:27:49;14.70;99.90
3053;DHT22;1536;51.098;6.414;2022-09-17T07:30:15;14.70;99.90
3053;DHT22;1536;51.098;6.414;2022-09-17T07:32:42;14.80;99.90
3053;DHT22;1536;51.098;6.414;2022-09-17T07:35:09;14.80;99.90
3053;DHT22;1536;51.098;6.414;2022-09-17T07:37:36;14.90;99.90
3053;DHT22;1536;51.098;6.414;2022-09-17T07:40:05;14.90;99.90
3053;DHT22;1536;51.098;6.414;2022-09-17T07:42:33;14.90;99.90
3053;DHT22;1536;51.098;6.414;2022-09-17T07:44:59;14.90;99.90
3053;DHT22;1536;51.098;6.414;2022-09-17T07:47:26;14.90;99.90
3053;DHT22;1536;51.098;6.414;2022-09-17T07:49:53;14.90;99.90
3053;DHT22;1536;51.098;6.414;2022-09-17T07:52:20;14.90;99.90
3053;DHT22;1536;51.098;6.414;2022-09-17T07:54:46;14.90;99.90
3053;DHT22;1536;51.098;6.414;2022-09-17T07:57:14;14.90;99.90
3053;DHT22;1536;51.098;6.414;2022-09-17T07:59:41;14.90;99.90
3053;DHT22;1536;51.098;6.414;2022-09-17T08:02:11;14.90;99.90
3053;DHT22;1536;51.098;6.414;2022-09-17T08:04:40;14.90;99.90
3053;DHT22;1536;51.098;6.414;2022-09-17T08:07:10;15.00;99.90
3053;DHT22;1536;51.098;6.414;2022-09-17T08:09:36;15.00;99.90
3053;DHT22;1536;51.098;6.414;2022-09-17T08:12:04;15.10;99.90
3053;DHT22;1536;51.098;6.414;2022-09-17T08:14:32;15.10;99.90
3053;DHT22;1536;51.098;6.414;2022-09-17T08:16:58;15.20;99.90
3053;DHT22;1536;51.098;6.414;2022-09-17T08:19:25;15.30;99.90
3053;DHT22;1536;51.098;6.414;2022-09-17T08:21:54;15.30;99.90
3053;DHT22;1536;51.098;6.414;2022-09-17T08:24:20;15.30;99.90
3053;DHT22;1536;51.098;6.414;2022-09-17T08:26:47;15.40;99.90
3053;DHT22;1536;51.098;6.414;2022-09-17T08:29:14;15.40;99.90
3053;DHT22;1536;51.098;6.414;2022-09-17T08:31:42;15.40;99.90
3053;DHT22;1536;51.098;6.414;2022-09-17T08:34:09;15.50;99.90
3053;DHT22;1536;51.098;6.414;2022-09-17T08:36:35;15.50;99.90
3053;DHT22;1536;51.098;6.414;2022-09-17T08:39:03;15.60;99.90
3053;DHT22;1536;51.098;6.414;2022-09-17T08:41:50;15.60;99.90
3053;DHT22;1536;51.098;6.414;2022-09-17T08:44:24;15.60;99.90
3053;DHT22;1536;51.098;6.414;2022-09-17T08:46:58;15.70;99.90
3053;DHT22;1536;51.098;6.414;2022-09-17T08:49:31;15.70;99.90
3053;DHT22;1536;51.098;6.414;2022-09-17T08:54:58;15.70;99.90
3053;DHT22;1536;51.098;6.414;2022-09-17T08:57:33;15.70;99.90
3053;DHT22;1536;51.098;6.414;2022-09-17T09:00:05;15.70;99.90
3053;DHT22;1536;51.098;6.414;2022-09-17T09:02:45;15.70;99.90
3053;DHT22;1536;51.098;6.414;2022-09-17T09:05:16;15.70;99.90
3053;DHT22;1536;51.098;6.414;2022-09-17T09:07:47;15.80;99.90
3053;DHT22;1536;51.098;6.414;2022-09-17T09:10:19;15.80;99.90
3053;DHT22;1536;51.098;6.414;2022-09-17T09:12:48;15.80;99.90
3053;DHT22;1536;51.098;6.414;2022-09-17T09:15:30;15.80;99.90
3053;DHT22;1536;51.098;6.414;2022-09-17T09:18:03;15.80;99.90
3053;DHT22;1536;51.098;6.414;2022-09-17T09:20:42;15.90;99.90
3053;DHT22;1536;51.098;6.414;2022-09-17T09:23:17;15.90;99.90
3053;DHT22;1536;51.098;6.414;2022-09-17T09:25:52;16.00;99.90
3053;DHT22;1536;51.098;6.414;2022-09-17T09:28:34;16.10;99.90
3053;DHT22;1536;51.098;6.414;2022-09-17T09:31:14;16.10;99.90
3053;DHT22;1536;51.098;6.414;2022-09-17T09:33:44;16.10;99.90
3053;DHT22;1536;51.098;6.414;2022-09-17T09:36:14;16.10;99.90
3053;DHT22;1536;51.098;6.414;2022-09-17T09:38:50;16.10;99.90
3053;DHT22;1536;51.098;6.414;2022-09-17T09:41:23;16.10;99.90
3053;DHT22;1536;51.098;6.414;2022-09-17T09:43:55;16.10;99.90
3053;DHT22;1536;51.098;6.414;2022-09-17T09:46:34;16.20;99.90
3053;DHT22;1536;51.098;6.414;2022-09-17T09:49:16;16.20;99.90
3053;DHT22;1536;51.098;6.414;2022-09-17T09:51:53;16.30;99.90
3053;DHT22;1536;51.098;6.414;2022-09-17T09:54:36;16.30;99.90
3053;DHT22;1536;51.098;6.414;2022-09-17T09:57:10;16.30;99.90
3053;DHT22;1536;51.098;6.414;2022-09-17T09:59:38;16.30;99.90
3053;DHT22;1536;51.098;6.414;2022-09-17T10:02:06;16.30;99.90
3053;DHT22;1536;51.098;6.414;2022-09-17T10:04:35;16.30;99.90
3053;DHT22;1536;51.098;6.414;2022-09-17T10:07:03;16.30;99.90
3053;DHT22;1536;51.098;6.414;2022-09-17T10:09:31;16.30;99.90
3053;DHT22;1536;51.098;6.414;2022-09-17T10:12:00;16.30;99.90
3053;DHT22;1536;51.098;6.414;2022-09-17T10:14:28;16.30;99.90
3053;DHT22;1536;51.098;6.414;2022-09-17T10:17:17;16.40;99.90
3053;DHT22;1536;51.098;6.414;2022-09-17T10:22:31;16.40;99.90
3053;DHT22;1536;51.098;6.414;2022-09-17T10:25:00;16.40;99.90
3053;DHT22;1536;51.098;6.414;2022-09-17T10:27:28;16.40;99.90
3053;DHT22;1536;51.098;6.414;2022-09-17T10:30:03;16.40;99.90
3053;DHT22;1536;51.098;6.414;2022-09-17T10:32:39;16.50;99.90
3053;DHT22;1536;51.098;6.414;2022-09-17T10:35:25;16.50;99.90
3053;DHT22;1536;51.098;6.414;2022-09-17T10:37:53;16.50;99.90
3053;DHT22;1536;51.098;6.414;2022-09-17T10:40:28;16.50;99.90
3053;DHT22;1536;51.098;6.414;2022-09-17T10:43:20;16.60;99.90
3053;DHT22;1536;51.098;6.414;2022-09-17T10:45:56;16.60;99.90
3053;DHT22;1536;51.098;6.414;2022-09-17T10:48:27;16.60;99.90
3053;DHT22;1536;51.098;6.414;2022-09-17T10:50:57;16.70;99.90
3053;DHT22;1536;51.098;6.414;2022-09-17T10:53:26;16.80;99.90
3053;DHT22;1536;51.098;6.414;2022-09-17T10:56:05;16.80;99.90
3053;DHT22;1536;51.098;6.414;2022-09-17T10:58:46;16.80;99.90
3053;DHT22;1536;51.098;6.414;2022-09-17T11:01:27;16.70;99.90
3053;DHT22;1536;51.098;6.414;2022-09-17T11:04:12;16.60;99.90
3053;DHT22;1536;51.098;6.414;2022-09-17T11:06:53;16.50;99.90
3053;DHT22;1536;51.098;6.414;2022-09-17T11:09:32;16.40;99.90
3053;DHT22;1536;51.098;6.414;2022-09-17T11:12:14;16.20;99.90
3053;DHT22;1536;51.098;6.414;2022-09-17T11:14:49;16.10;99.90
3053;DHT22;1536;51.098;6.414;2022-09-17T11:17:29;16.10;99.90
3053;DHT22;1536;51.098;6.414;2022-09-17T11:20:03;16.00;99.90
3053;DHT22;1536;51.098;6.414;2022-09-17T11:22:42;16.00;99.90
3053;DHT22;1536;51.098;6.414;2022-09-17T11:25:33;15.90;99.90
3053;DHT22;1536;51.098;6.414;2022-09-17T11:28:19;16.00;99.90
3053;DHT22;1536;51.098;6.414;2022-09-17T11:30:55;16.00;99.90
3053;DHT22;1536;51.098;6.414;2022-09-17T11:36:21;16.00;99.90
3053;DHT22;1536;51.098;6.414;2022-09-17T11:38:54;16.00;99.90
3053;DHT22;1536;51.098;6.414;2022-09-17T11:41:25;16.10;99.90
3053;DHT22;1536;51.098;6.414;2022-09-17T11:44:00;16.10;99.90
3053;DHT22;1536;51.098;6.414;2022-09-17T11:46:31;16.20;99.90
3053;DHT22;1536;51.098;6.414;2022-09-17T11:49:03;16.20;99.90
3053;DHT22;1536;51.098;6.414;2022-09-17T11:51:35;16.20;99.90
3053;DHT22;1536;51.098;6.414;2022-09-17T11:54:06;16.30;99.90
3053;DHT22;1536;51.098;6.414;2022-09-17T11:56:37;16.40;99.90
3053;DHT22;1536;51.098;6.414;2022-09-17T11:59:12;16.40;99.90
3053;DHT22;1536;51.098;6.414;2022-09-17T12:01:44;16.50;99.90
3053;DHT22;1536;51.098;6.414;2022-09-17T12:04:31;16.50;99.90
3053;DHT22;1536;51.098;6.414;2022-09-17T12:07:10;16.60;99.90
3053;DHT22;1536;51.098;6.414;2022-09-17T12:09:42;16.60;99.90
3053;DHT22;1536;51.098;6.414;2022-09-17T12:12:15;16.70;99.90
3053;DHT22;1536;51.098;6.414;2022-09-17T12:14:46;16.70;99.90
3053;DHT22;1536;51.098;6.414;2022-09-17T12:17:19;16.70;99.90
3053;DHT22;1536;51.098;6.414;2022-09-17T12:19:49;16.70;99.90
3053;DHT22;1536;51.098;6.414;2022-09-17T12:22:20;16.70;99.90
3053;DHT22;1536;51.098;6.414;2022-09-17T12:24:51;16.70;99.90
3053;DHT22;1536;51.098;6.414;2022-09-17T12:27:29;16.70;99.90
3053;DHT22;1536;51.098;6.414;2022-09-17T12:30:08;16.70;99.90
3053;DHT22;1536;51.098;6.414;2022-09-17T12:32:53;16.70;99.90
3053;DHT22;1536;51.098;6.414;2022-09-17T12:35:32;16.70;99.90
3053;DHT22;1536;51.098;6.414;2022-09-17T12:38:14;16.70;99.90
3053;DHT22;1536;51.098;6.414;2022-09-17T12:40:50;16.70;99.90
3053;DHT22;1536;51.098;6.414;2022-09-17T12:43:37;16.60;99.90
3053;DHT22;1536;51.098;6.414;2022-09-17T12:46:23;16.60;99.90
3053;DHT22;1536;51.098;6.414;2022-09-17T12:49:06;16.60;99.90
3053;DHT22;1536;51.098;6.414;2022-09-17T12:51:55;16.60;99.90
3053;DHT22;1536;51.098;6.414;2022-09-17T12:54:44;16.60;99.90
3053;DHT22;1536;51.098;6.414;2022-09-17T12:57:27;16.70;99.90
3053;DHT22;1536;51.098;6.414;2022-09-17T12:59:59;16.70;99.90
3053;DHT22;1536;51.098;6.414;2022-09-17T13:02:32;16.80;99.90
3053;DHT22;1536;51.098;6.414;2022-09-17T13:05:27;16.90;99.90
3053;DHT22;1536;51.098;6.414;2022-09-17T13:08:17;17.00;99.90
3053;DHT22;1536;51.098;6.414;2022-09-17T13:11:06;17.00;99.90
3053;DHT22;1536;51.098;6.414;2022-09-17T13:13:46;17.10;99.90
3053;DHT22;1536;51.098;6.414;2022-09-17T13:16:17;17.10;99.90
3053;DHT22;1536;51.098;6.414;2022-09-17T13:18:55;17.20;99.90
3053;DHT22;1536;51.098;6.414;2022-09-17T13:21:30;17.20;99.90
3053;DHT22;1536;51.098;6.414;2022-09-17T13:23:58;17.20;99.90
3053;DHT22;1536;51.098;6.414;2022-09-17T13:26:34;17.20;99.90
3053;DHT22;1536;51.098;6.414;2022-09-17T13:29:03;17.30;99.90
3053;DHT22;1536;51.098;6.414;2022-09-17T13:31:46;17.30;99.90
3053;DHT22;1536;51.098;6.414;2022-09-17T13:34:28;17.40;99.90
3053;DHT22;1536;51.098;6.414;2022-09-17T13:36:57;17.50;99.90
3053;DHT22;1536;51.098;6.414;2022-09-17T13:39:38;17.60;99.90
3053;DHT22;1536;51.098;6.414;2022-09-17T13:42:09;17.60;99.90
3053;DHT22;1536;51.098;6.414;2022-09-17T13:44:40;17.60;99.90
3053;DHT22;1536;51.098;6.414;2022-09-17T13:47:15;17.60;99.90
3053;DHT22;1536;51.098;6.414;2022-09-17T13:49:48;17.60;99.90
3053;DHT22;1536;51.098;6.414;2022-09-17T13:52:37;17.60;99.90
3053;DHT22;1536;51.098;6.414;2022-09-17T13:55:06;17.50;99.90
3053;DHT22;1536;51.098;6.414;2022-09-17T13:57:44;17.40;99.90
3053;DHT22;1536;51.098;6.414;2022-09-17T14:06:50;17.00;99.90
3053;DHT22;1536;51.098;6.414;2022-09-17T14:09:43;16.80;99.90
3053;DHT22;1536;51.098;6.414;2022-09-17T14:15:55;16.60;99.90
3053;DHT22;1536;51.098;6.414;2022-09-17T14:18:54;16.50;99.90
3053;DHT22;1536;51.098;6.414;2022-09-17T14:21:26;16.40;99.90
3053;DHT22;1536;51.098;6.414;2022-09-17T14:23:56;16.40;99.90
3053;DHT22;1536;51.098;6.414;2022-09-17T14:26:46;16.40;99.90
3053;DHT22;1536;51.098;6.414;2022-09-17T14:29:32;16.40;99.90
3053;DHT22;1536;51.098;6.414;2022-09-17T14:32:05;16.40;99.90
3053;DHT22;1536;51.098;6.414;2022-09-17T14:34:32;16.40;99.90
3053;DHT22;1536;51.098;6.414;2022-09-17T14:36:59;16.40;99.90
3053;DHT22;1536;51.098;6.414;2022-09-17T14:39:35;16.40;99.90
3053;DHT22;1536;51.098;6.414;2022-09-17T14:42:04;16.40;99.90
3053;DHT22;1536;51.098;6.414;2022-09-17T14:44:34;16.40;99.90
3053;DHT22;1536;51.098;6.414;2022-09-17T14:47:02;16.40;99.90
3053;DHT22;1536;51.098;6.414;2022-09-17T14:49:34;16.40;99.90
3053;DHT22;1536;51.098;6.414;2022-09-17T14:52:02;16.50;99.90
3053;DHT22;1536;51.098;6.414;2022-09-17T14:54:45;16.50;99.90
3053;DHT22;1536;51.098;6.414;2022-09-17T14:57:21;16.60;99.90
3053;DHT22;1536;51.098;6.414;2022-09-17T14:59:50;16.60;99.90
3053;DHT22;1536;51.098;6.414;2022-09-17T15:02:27;16.60;99.90
3053;DHT22;1536;51.098;6.414;2022-09-17T15:04:54;16.70;99.90
3053;DHT22;1536;51.098;6.414;2022-09-17T15:07:23;16.70;99.90
3053;DHT22;1536;51.098;6.414;2022-09-17T15:09:51;16.60;99.90
3053;DHT22;1536;51.098;6.414;2022-09-17T15:12:23;16.50;99.90
3053;DHT22;1536;51.098;6.414;2022-09-17T15:14:51;16.50;99.90
3053;DHT22;1536;51.098;6.414;2022-09-17T15:17:19;16.40;99.90
3053;DHT22;1536;51.098;6.414;2022-09-17T15:19:48;16.40;99.90
3053;DHT22;1536;51.098;6.414;2022-09-17T15:22:18;16.30;99.90
3053;DHT22;1536;51.098;6.414;2022-09-17T15:24:49;16.20;99.90
3053;DHT22;1536;51.098;6.414;2022-09-17T15:27:23;16.20;99.90
3053;DHT22;1536;51.098;6.414;2022-09-17T15:29:56;16.20;99.90
3053;DHT22;1536;51.098;6.414;2022-09-17T15:32:25;16.20;99.90
3053;DHT22;1536;51.098;6.414;2022-09-17T15:35:22;16.10;99.90
3053;DHT22;1536;51.098;6.414;2022-09-17T15:37:49;16.10;99.90
3053;DHT22;1536;51.098;6.414;2022-09-17T15:40:24;16.00;99.90
3053;DHT22;1536;51.098;6.414;2022-09-17T15:43:01;16.00;99.90
3053;DHT22;1536;51.098;6.414;2022-09-17T15:45:29;16.00;99.90
3053;DHT22;1536;51.098;6.414;2022-09-17T15:47:57;15.90;99.90
3053;DHT22;1536;51.098;6.414;2022-09-17T15:50:25;15.90;99.90
3053;DHT22;1536;51.098;6.414;2022-09-17T15:53:10;15.80;99.90
3053;DHT22;1536;51.098;6.414;2022-09-17T15:55:39;15.80;99.90
3053;DHT22;1536;51.098;6.414;2022-09-17T15:58:21;15.70;99.90
3053;DHT22;1536;51.098;6.414;2022-09-17T16:04:15;15.70;99.90
3053;DHT22;1536;51.098;6.414;2022-09-17T16:06:47;15.70;99.90
3053;DHT22;1536;51.098;6.414;2022-09-17T16:09:38;15.70;99.90
3053;DHT22;1536;51.098;6.414;2022-09-17T16:12:05;15.70;99.90
3053;DHT22;1536;51.098;6.414;2022-09-17T16:14:33;15.70;99.90
3053;DHT22;1536;51.098;6.414;2022-09-17T16:19:49;15.60;99.90
3053;DHT22;1536;51.098;6.414;2022-09-17T16:22:16;15.60;99.90
3053;DHT22;1536;51.098;6.414;2022-09-17T16:24:42;15.60;99.90
3053;DHT22;1536;51.098;6.414;2022-09-17T16:27:12;15.60;99.90
3053;DHT22;1536;51.098;6.414;2022-09-17T16:29:43;15.60;99.90
3053;DHT22;1536;51.098;6.414;2022-09-17T16:32:10;15.60;99.90
3053;DHT22;1536;51.098;6.414;2022-09-17T16:34:36;15.50;99.90
3053;DHT22;1536;51.098;6.414;2022-09-17T16:37:03;15.50;99.90
3053;DHT22;1536;51.098;6.414;2022-09-17T16:39:30;15.50;99.90
3053;DHT22;1536;51.098;6.414;2022-09-17T16:41:56;15.50;99.90
3053;DHT22;1536;51.098;6.414;2022-09-17T16:44:23;15.50;99.90
3053;DHT22;1536;51.098;6.414;2022-09-17T16:46:51;15.50;99.90
3053;DHT22;1536;51.098;6.414;2022-09-17T16:49:18;15.50;99.90
3053;DHT22;1536;51.098;6.414;2022-09-17T16:51:45;15.40;99.90
3053;DHT22;1536;51.098;6.414;2022-09-17T16:54:11;15.40;99.90
3053;DHT22;1536;51.098;6.414;2022-09-17T16:56:38;15.40;99.90
3053;DHT22;1536;51.098;6.414;2022-09-17T16:59:05;15.40;99.90
3053;DHT22;1536;51.098;6.414;2022-09-17T17:01:32;15.30;99.90